createdAt,value
2023-09-23T00:00:18.840Z,48.2500
2023-09-23T00:01:21.096Z,48.2310
2023-09-23T00:02:23.420Z,48.2560
2023-09-23T00:03:25.752Z,48.2740
2023-09-23T00:04:27.932Z,48.3030
2023-09-23T00:05:28.095Z,48.2660
2023-09-23T00:06:30.205Z,48.2600
2023-09-23T00:07:32.511Z,48.3420
2023-09-23T00:08:34.690Z,48.2600
2023-09-23T00:09:36.924Z,48.1580
2023-09-23T00:10:39.196Z,48.1580
2023-09-23T00:11:41.306Z,48.1850
2023-09-23T00:12:43.580Z,48.2400
2023-09-23T00:13:45.895Z,48.2340
2023-09-23T00:14:48.033Z,48.3420
2023-09-23T00:15:48.092Z,48.2850
2023-09-23T00:16:50.411Z,48.2190
2023-09-23T00:17:52.560Z,48.1690
2023-09-23T00:18:54.773Z,48.1750
2023-09-23T00:20:04.495Z,48.2380
2023-09-23T00:22:05.847Z,48.3660
2023-09-23T00:23:08.145Z,48.3210
2023-09-23T00:24:10.173Z,48.2520
2023-09-23T00:25:12.354Z,48.2520
2023-09-23T00:26:14.563Z,48.2400
2023-09-23T00:27:16.717Z,48.2400
2023-09-23T00:28:18.957Z,48.2190
2023-09-23T00:29:19.024Z,48.2790
2023-09-23T00:30:21.217Z,48.2790
2023-09-23T00:31:23.417Z,48.1910
2023-09-23T00:32:25.680Z,48.1910
2023-09-23T00:33:27.854Z,48.1650
2023-09-23T00:34:30.089Z,48.0590
2023-09-23T00:35:32.308Z,48.0930
2023-09-23T00:36:34.485Z,48.0750
2023-09-23T00:37:36.699Z,48.0830
2023-09-23T00:38:39.002Z,48.1770
2023-09-23T00:39:41.161Z,48.1770
2023-09-23T00:40:43.398Z,48.1850
2023-09-23T00:41:45.527Z,48.2090
2023-09-23T00:42:47.708Z,48.1990
2023-09-23T00:43:50.022Z,48.1750
2023-09-23T00:44:52.075Z,48.1300
2023-09-23T00:45:52.104Z,48.1990
2023-09-23T00:46:54.328Z,48.2840
2023-09-23T00:47:56.489Z,48.2090
2023-09-23T00:48:58.694Z,48.1500
2023-09-23T00:50:00.900Z,48.1970
2023-09-23T00:51:03.038Z,48.1460
2023-09-23T00:52:05.245Z,48.1580
2023-09-23T00:53:07.578Z,48.1580
2023-09-23T00:54:09.740Z,48.1850
2023-09-23T00:55:11.983Z,48.1400
2023-09-23T00:56:14.272Z,48.0830
2023-09-23T00:57:16.492Z,48.0400
2023-09-23T00:58:18.738Z,48.0180
2023-09-23T00:59:18.843Z,48.0540
2023-09-23T01:00:21.058Z,48.1230
2023-09-23T01:01:23.274Z,48.2040
2023-09-23T01:02:25.567Z,48.1980
2023-09-23T01:03:27.740Z,48.3020
2023-09-23T01:04:29.949Z,48.2960
2023-09-23T01:05:32.226Z,48.2610
2023-09-23T01:06:34.472Z,48.2800
2023-09-23T01:07:36.750Z,48.2920
2023-09-23T01:08:38.938Z,48.2970
2023-09-23T01:09:41.219Z,48.2090
2023-09-23T01:10:41.510Z,48.1580
2023-09-23T01:11:43.540Z,48.1460
2023-09-23T01:12:45.707Z,48.2090
2023-09-23T01:13:47.972Z,48.1970
2023-09-23T01:14:50.179Z,48.1700
2023-09-23T01:15:52.444Z,48.1580
2023-09-23T01:16:54.633Z,48.1770
2023-09-23T01:17:56.849Z,48.1930
2023-09-23T01:18:58.991Z,48.2030
2023-09-23T01:20:01.296Z,48.2030
2023-09-23T01:21:03.425Z,48.1560
2023-09-23T01:22:03.471Z,48.1470
2023-09-23T01:23:05.722Z,48.1590
2023-09-23T01:24:07.914Z,48.1690
2023-09-23T01:25:10.276Z,48.2280
2023-09-23T01:26:12.466Z,48.2830
2023-09-23T01:27:14.631Z,48.2630
2023-09-23T01:28:16.829Z,48.2630
2023-09-23T01:29:19.265Z,48.1940
2023-09-23T01:30:21.329Z,48.1870
2023-09-23T01:31:23.857Z,48.2260
2023-09-23T01:32:25.873Z,48.2800
2023-09-23T01:33:25.886Z,48.3820
2023-09-23T01:34:28.036Z,48.3680
2023-09-23T01:35:30.314Z,48.4430
2023-09-23T01:36:32.516Z,48.4310
2023-09-23T01:37:34.669Z,48.3760
2023-09-23T01:38:36.904Z,48.3500
2023-09-23T01:39:39.156Z,48.2890
2023-09-23T01:40:41.435Z,48.2500
2023-09-23T01:41:43.643Z,48.2920
2023-09-23T01:42:45.826Z,48.3310
2023-09-23T01:43:48.075Z,48.4510
2023-09-23T01:44:50.373Z,48.3760
2023-09-23T01:45:52.556Z,48.3130
2023-09-23T01:46:52.717Z,48.2430
2023-09-23T01:47:54.843Z,48.2860
2023-09-23T01:48:56.979Z,48.3250
2023-09-23T01:49:59.247Z,48.3940
2023-09-23T01:51:01.418Z,48.3010
2023-09-23T01:52:03.620Z,48.2500
2023-09-23T01:53:05.935Z,48.2840
2023-09-23T01:54:08.002Z,48.2920
2023-09-23T01:55:10.212Z,48.2620
2023-09-23T01:56:12.509Z,48.2920
2023-09-23T01:57:14.667Z,48.3330
2023-09-23T01:58:16.874Z,48.3210
2023-09-23T01:59:19.149Z,48.3330
2023-09-23T02:00:21.272Z,48.3650
2023-09-23T02:01:23.562Z,48.3080
2023-09-23T02:02:23.652Z,48.3470
2023-09-23T02:03:26.018Z,48.3470
2023-09-23T02:04:28.028Z,48.3310
2023-09-23T02:05:30.209Z,48.4570
2023-09-23T02:06:32.447Z,48.4630
2023-09-23T02:07:34.649Z,48.5180
2023-09-23T02:08:36.813Z,48.4650
2023-09-23T02:09:38.965Z,48.3710
2023-09-23T02:11:30.669Z,48.3470
2023-09-23T02:12:32.808Z,48.3080
2023-09-23T02:13:34.992Z,48.3770
2023-09-23T02:14:37.191Z,48.3120
2023-09-23T02:15:39.416Z,48.2860
2023-09-23T02:16:41.648Z,48.3740
2023-09-23T02:17:43.982Z,48.3120
2023-09-23T02:18:46.200Z,48.2800
2023-09-23T02:19:46.138Z,48.2080
2023-09-23T02:20:48.316Z,48.1680
2023-09-23T02:21:50.513Z,48.2170
2023-09-23T02:22:52.785Z,48.2290
2023-09-23T02:23:54.940Z,48.2490
2023-09-23T02:24:57.153Z,48.1920
2023-09-23T02:25:59.400Z,48.2710
2023-09-23T02:27:01.646Z,48.3080
2023-09-23T02:28:03.952Z,48.2960
2023-09-23T02:29:06.205Z,48.2960
2023-09-23T02:30:08.421Z,48.2860
2023-09-23T02:31:10.842Z,48.2860
2023-09-23T02:32:10.837Z,48.3940
2023-09-23T02:33:13.121Z,48.3470
2023-09-23T02:34:15.381Z,48.3020
2023-09-23T02:35:17.792Z,48.3140
2023-09-23T02:36:19.929Z,48.2900
2023-09-23T02:37:22.171Z,48.3020
2023-09-23T02:38:24.526Z,48.2680
2023-09-23T02:39:26.689Z,48.3120
2023-09-23T02:40:26.825Z,48.2800
2023-09-23T02:41:29.074Z,48.2230
2023-09-23T02:42:31.354Z,48.1960
2023-09-23T02:43:33.636Z,48.2210
2023-09-23T02:44:35.891Z,48.2390
2023-09-23T02:45:38.121Z,48.2840
2023-09-23T02:46:40.452Z,48.3140
2023-09-23T02:47:42.701Z,48.2900
2023-09-23T02:48:42.767Z,48.2510
2023-09-23T02:49:45.043Z,48.2800
2023-09-23T02:50:47.201Z,48.4240
2023-09-23T02:51:49.437Z,48.3310
2023-09-23T02:52:52.054Z,48.2490
2023-09-23T02:53:54.032Z,48.2740
2023-09-23T02:54:56.247Z,48.3060
2023-09-23T02:55:58.535Z,48.2920
2023-09-23T02:57:00.800Z,48.3140
2023-09-23T02:58:00.950Z,48.2900
2023-09-23T02:59:03.253Z,48.3020
2023-09-23T03:00:05.409Z,48.3710
2023-09-23T03:01:07.669Z,48.3330
2023-09-23T03:02:09.985Z,48.3840
2023-09-23T03:03:12.218Z,48.3140
2023-09-23T03:04:14.456Z,48.2570
2023-09-23T03:05:16.591Z,48.2510
2023-09-23T03:06:18.752Z,48.2900
2023-09-23T03:07:20.953Z,48.3080
2023-09-23T03:08:21.083Z,48.3470
2023-09-23T03:09:23.276Z,48.3200
2023-09-23T03:10:25.364Z,48.3330
2023-09-23T03:11:27.533Z,48.3060
2023-09-23T03:12:29.714Z,48.2390
2023-09-23T03:13:31.888Z,48.2450
2023-09-23T03:14:34.228Z,48.2020
2023-09-23T03:15:36.311Z,48.2260
2023-09-23T03:16:38.586Z,48.2810
2023-09-23T03:17:40.841Z,48.2890
2023-09-23T03:18:42.899Z,48.2950
2023-09-23T03:19:45.199Z,48.3320
2023-09-23T03:20:48.368Z,48.2810
2023-09-23T03:21:49.584Z,48.2810
2023-09-23T03:22:51.823Z,48.2620
2023-09-23T03:23:53.964Z,48.2260
2023-09-23T03:24:56.252Z,48.2140
2023-09-23T03:25:56.303Z,48.2060
2023-09-23T03:26:58.492Z,48.1870
2023-09-23T03:28:00.738Z,48.2030
2023-09-23T03:29:02.946Z,48.1650
2023-09-23T03:30:05.209Z,48.2620
2023-09-23T03:31:07.318Z,48.2210
2023-09-23T03:32:09.609Z,48.3350
2023-09-23T03:33:11.728Z,48.3030
2023-09-23T03:34:13.916Z,48.2970
2023-09-23T03:35:16.191Z,48.3480
2023-09-23T03:36:18.332Z,48.3500
2023-09-23T03:37:20.501Z,48.3130
2023-09-23T03:38:22.850Z,48.2950
2023-09-23T03:39:24.881Z,48.3620
2023-09-23T03:40:27.108Z,48.3440
2023-09-23T03:41:29.290Z,48.3290
2023-09-23T03:42:31.402Z,48.3090
2023-09-23T03:43:31.417Z,48.3360
2023-09-23T03:44:33.598Z,48.3970
2023-09-23T03:45:36.036Z,48.3600
2023-09-23T03:46:37.956Z,48.3150
2023-09-23T03:47:40.187Z,48.3090
2023-09-23T03:48:42.371Z,48.3300
2023-09-23T03:49:44.559Z,48.3150
2023-09-23T03:50:46.737Z,48.3090
2023-09-23T03:51:48.959Z,48.3150
2023-09-23T03:52:51.166Z,48.3070
2023-09-23T03:53:53.406Z,48.3260
2023-09-23T03:54:55.534Z,48.3560
2023-09-23T03:55:57.795Z,48.4410
2023-09-23T03:56:59.861Z,48.3590
2023-09-23T03:58:02.041Z,48.3770
2023-09-23T03:59:04.173Z,48.4120
2023-09-23T04:00:06.322Z,48.4120
2023-09-23T04:01:08.432Z,48.3670
2023-09-23T04:02:10.603Z,48.3530
2023-09-23T04:03:12.775Z,48.3530
2023-09-23T04:04:14.854Z,48.3470
2023-09-23T04:05:17.035Z,48.3470
2023-09-23T04:06:19.202Z,48.3840
2023-09-23T04:07:21.361Z,48.3330
2023-09-23T04:08:23.622Z,48.2960
2023-09-23T04:09:25.723Z,48.2960
2023-09-23T04:10:27.961Z,48.2900
2023-09-23T04:11:28.044Z,48.3060
2023-09-23T04:12:30.220Z,48.3310
2023-09-23T04:13:32.356Z,48.3370
2023-09-23T04:14:34.517Z,48.3310
2023-09-23T04:15:36.620Z,48.3370
2023-09-23T04:16:38.803Z,48.3430
2023-09-23T04:17:40.909Z,48.3250
2023-09-23T04:18:43.040Z,48.2560
2023-09-23T04:19:45.228Z,48.2050
2023-09-23T04:20:47.398Z,48.2310
2023-09-23T04:21:49.619Z,48.2230
2023-09-23T04:22:51.785Z,48.1760
2023-09-23T04:23:53.912Z,48.1880
2023-09-23T04:24:56.092Z,48.1820
2023-09-23T04:25:58.297Z,48.1640
2023-09-23T04:27:00.487Z,48.1820
2023-09-23T04:28:02.553Z,48.1580
2023-09-23T04:29:04.730Z,48.1450
2023-09-23T04:30:06.868Z,48.1450
2023-09-23T04:31:09.033Z,48.1520
2023-09-23T04:32:11.231Z,48.1070
2023-09-23T04:33:13.679Z,48.1230
2023-09-23T04:34:15.523Z,48.0660
2023-09-23T04:35:17.831Z,48.1210
2023-09-23T04:37:35.051Z,48.1970
2023-09-23T04:38:37.149Z,48.1560
2023-09-23T04:39:39.337Z,48.1990
2023-09-23T04:40:39.330Z,48.2260
2023-09-23T04:41:41.525Z,48.2480
2023-09-23T04:42:43.756Z,48.2090
2023-09-23T04:43:45.886Z,48.1910
2023-09-23T04:44:48.060Z,48.1790
2023-09-23T04:45:50.349Z,48.0710
2023-09-23T04:46:52.656Z,48.1120
2023-09-23T04:47:54.835Z,48.1240
2023-09-23T04:48:57.048Z,48.1170
2023-09-23T04:49:59.356Z,48.1880
2023-09-23T04:51:01.486Z,48.1670
2023-09-23T04:52:03.653Z,48.2220
2023-09-23T04:53:05.885Z,48.3240
2023-09-23T04:54:08.070Z,48.3730
2023-09-23T04:55:08.171Z,48.5100
2023-09-23T04:56:10.411Z,48.5160
2023-09-23T04:57:12.613Z,48.4890
2023-09-23T04:58:14.920Z,48.4520
2023-09-23T04:59:17.138Z,48.5100
2023-09-23T05:00:19.356Z,48.4630
2023-09-23T05:01:21.585Z,48.4060
2023-09-23T05:02:23.870Z,48.4200
2023-09-23T05:03:26.089Z,48.4280
2023-09-23T05:04:28.361Z,48.4340
2023-09-23T05:05:30.465Z,48.4540
2023-09-23T05:06:32.618Z,48.4580
2023-09-23T05:07:34.821Z,48.5750
2023-09-23T05:08:34.839Z,48.5750
2023-09-23T05:09:36.950Z,48.6050
2023-09-23T05:10:39.163Z,48.5810
2023-09-23T05:11:41.297Z,48.5460
2023-09-23T05:12:43.494Z,48.5100
2023-09-23T05:13:45.783Z,48.4710
2023-09-23T05:14:47.932Z,48.4200
2023-09-23T05:15:50.184Z,48.4020
2023-09-23T05:16:52.316Z,48.5150
2023-09-23T05:17:54.582Z,48.5210
2023-09-23T05:18:56.864Z,48.4580
2023-09-23T05:19:59.000Z,48.4400
2023-09-23T05:21:01.130Z,48.5090
2023-09-23T05:22:03.299Z,48.4520
2023-09-23T05:23:05.568Z,48.4780
2023-09-23T05:24:05.614Z,48.5170
2023-09-23T05:25:07.792Z,48.5630
2023-09-23T05:26:10.057Z,48.6040
2023-09-23T05:27:12.234Z,48.5100
2023-09-23T05:28:14.455Z,48.4870
2023-09-23T05:29:16.803Z,48.5290
2023-09-23T05:30:18.900Z,48.5680
2023-09-23T05:31:21.155Z,48.6030
2023-09-23T05:32:23.407Z,48.6400
2023-09-23T05:33:25.562Z,48.6560
2023-09-23T05:34:27.922Z,48.6320
2023-09-23T05:35:30.015Z,48.5770
2023-09-23T05:36:32.233Z,48.5030
2023-09-23T05:37:32.317Z,48.4580
2023-09-23T05:38:34.544Z,48.3830
2023-09-23T05:39:36.817Z,48.3260
2023-09-23T05:40:39.016Z,48.3020
2023-09-23T05:41:41.209Z,48.3240
2023-09-23T05:42:43.428Z,48.3100
2023-09-23T05:43:45.715Z,48.2910
2023-09-23T05:44:47.886Z,48.2850
2023-09-23T05:45:50.044Z,48.2670
2023-09-23T05:46:52.332Z,48.2910
2023-09-23T05:47:54.857Z,48.3100
2023-09-23T05:48:56.741Z,48.3240
2023-09-23T05:49:56.879Z,48.2850
2023-09-23T05:50:59.050Z,48.3030
2023-09-23T05:52:01.273Z,48.3030
2023-09-23T05:53:03.635Z,48.3020
2023-09-23T05:54:05.722Z,48.2320
2023-09-23T05:55:08.089Z,48.2750
2023-09-23T05:56:10.245Z,48.2670
2023-09-23T05:57:12.448Z,48.1690
2023-09-23T05:58:14.639Z,48.1730
2023-09-23T05:59:16.927Z,48.1730
2023-09-23T06:00:19.271Z,48.1970
2023-09-23T06:01:21.384Z,48.2280
2023-09-23T06:02:21.478Z,48.2610
2023-09-23T06:03:23.696Z,48.1790
2023-09-23T06:04:25.859Z,48.1970
2023-09-23T06:05:28.898Z,48.1350
2023-09-23T06:06:30.344Z,48.1000
2023-09-23T06:07:32.600Z,48.0590
2023-09-23T06:08:34.834Z,48.0710
2023-09-23T06:09:37.092Z,48.1990
2023-09-23T06:10:39.375Z,48.1640
2023-09-23T06:11:41.618Z,48.2090
2023-09-23T06:12:43.848Z,48.2330
2023-09-23T06:13:44.083Z,48.1580
2023-09-23T06:14:46.143Z,48.0640
2023-09-23T06:15:48.489Z,48.0300
2023-09-23T06:16:50.754Z,48.0460
2023-09-23T06:17:53.076Z,47.9890
2023-09-23T06:19:59.786Z,48.2080
2023-09-23T06:21:01.925Z,48.2340
2023-09-23T06:22:02.998Z,48.4980
2023-09-23T06:23:05.222Z,48.6440
2023-09-23T06:24:07.420Z,48.7140
2023-09-23T06:25:09.575Z,48.8070
2023-09-23T06:26:11.882Z,48.7190
2023-09-23T06:27:13.968Z,48.7790
2023-09-23T06:28:16.181Z,48.7910
2023-09-23T06:29:18.340Z,48.7850
2023-09-23T06:30:20.500Z,48.8070
2023-09-23T06:31:22.736Z,48.8540
2023-09-23T06:32:24.921Z,48.9170
2023-09-23T06:33:26.898Z,48.9170
2023-09-23T06:34:29.048Z,48.8730
2023-09-23T06:35:31.250Z,48.8010
2023-09-23T06:36:33.558Z,48.7680
2023-09-23T06:37:33.485Z,48.8590
2023-09-23T06:38:35.719Z,48.8780
2023-09-23T06:39:37.893Z,48.9160
2023-09-23T06:40:40.160Z,48.9530
2023-09-23T06:41:42.383Z,48.9230
2023-09-23T06:42:42.481Z,48.9530
2023-09-23T06:43:45.033Z,48.9380
2023-09-23T06:44:47.057Z,48.8560
2023-09-23T06:45:49.354Z,48.8070
2023-09-23T06:46:49.576Z,48.7140
2023-09-23T06:47:51.942Z,48.7330
2023-09-23T06:48:54.081Z,48.7670
2023-09-23T06:49:56.384Z,48.8430
2023-09-23T06:50:58.707Z,48.8740
2023-09-23T06:52:01.072Z,48.8610
2023-09-23T06:53:03.327Z,48.9180
2023-09-23T06:54:03.354Z,48.9940
2023-09-23T06:55:05.672Z,49.1580
2023-09-23T06:56:08.033Z,49.1520
2023-09-23T06:57:10.247Z,49.1170
2023-09-23T06:58:10.311Z,49.0890
2023-09-23T06:59:12.603Z,49.0480
2023-09-23T07:00:14.851Z,49.1810
2023-09-23T07:01:17.223Z,49.0750
2023-09-23T07:02:17.459Z,48.9890
2023-09-23T07:03:19.860Z,48.8610
2023-09-23T07:04:21.993Z,48.8240
2023-09-23T07:05:24.219Z,48.8530
2023-09-23T07:06:26.512Z,48.7970
2023-09-23T07:07:28.841Z,48.7420
2023-09-23T07:08:31.215Z,48.7620
2023-09-23T07:09:33.424Z,48.8910
2023-09-23T07:10:35.712Z,48.9480
2023-09-23T07:11:38.010Z,48.9200
2023-09-23T07:12:38.160Z,48.8710
2023-09-23T07:13:40.426Z,48.7910
2023-09-23T07:14:42.707Z,48.8030
2023-09-23T07:15:45.014Z,48.7790
2023-09-23T07:16:47.485Z,48.7440
2023-09-23T07:17:49.592Z,48.7010
2023-09-23T07:18:51.763Z,48.8500
2023-09-23T07:19:54.029Z,48.7690
2023-09-23T07:20:56.177Z,48.6440
2023-09-23T07:21:58.379Z,48.6810
2023-09-23T07:23:00.620Z,48.6500
2023-09-23T07:24:04.754Z,48.5750
2023-09-23T07:25:04.996Z,48.5830
2023-09-23T07:26:07.319Z,48.5830
2023-09-23T07:27:09.386Z,48.5210
2023-09-23T07:28:11.665Z,48.5460
2023-09-23T07:29:13.758Z,48.4930
2023-09-23T07:30:18.336Z,48.4950
2023-09-23T07:31:18.246Z,48.5620
2023-09-23T07:32:20.464Z,48.5990
2023-09-23T07:33:22.649Z,48.5880
2023-09-23T07:34:24.850Z,48.5120
2023-09-23T07:35:27.049Z,48.4820
2023-09-23T07:36:29.249Z,48.4060
2023-09-23T07:37:31.433Z,48.2960
2023-09-23T07:38:33.749Z,48.3650
2023-09-23T07:39:33.804Z,48.2390
2023-09-23T07:40:36.095Z,48.2270
2023-09-23T07:41:38.368Z,48.2670
2023-09-23T07:42:40.662Z,48.3020
2023-09-23T07:43:40.816Z,48.1960
2023-09-23T07:44:43.076Z,48.3430
2023-09-23T07:45:45.395Z,48.3990
2023-09-23T07:46:47.651Z,48.4530
2023-09-23T07:47:49.926Z,48.4000
2023-09-23T07:48:52.297Z,48.4280
2023-09-23T07:49:54.422Z,48.3940
2023-09-23T07:50:56.640Z,48.4530
2023-09-23T07:51:58.825Z,48.4080
2023-09-23T07:53:01.082Z,48.4160
2023-09-23T07:54:03.290Z,48.4080
2023-09-23T07:55:05.503Z,48.4820
2023-09-23T07:56:07.768Z,48.3850
2023-09-23T07:57:09.982Z,48.3890
2023-09-23T07:59:41.360Z,48.1140
2023-09-23T08:00:42.446Z,48.0060
2023-09-23T08:01:44.781Z,47.9590
2023-09-23T08:02:47.016Z,47.9590
2023-09-23T08:03:49.273Z,47.8910
2023-09-23T08:04:51.486Z,47.6760
2023-09-23T08:05:53.633Z,47.5070
2023-09-23T08:06:55.771Z,47.4810
2023-09-23T08:07:55.886Z,47.4630
2023-09-23T08:08:58.154Z,47.4060
2023-09-23T08:10:00.404Z,47.3980
2023-09-23T08:11:02.773Z,47.4290
2023-09-23T08:12:04.930Z,47.3810
2023-09-23T08:13:07.206Z,47.3700
2023-09-23T08:14:09.524Z,47.5080
2023-09-23T08:15:11.763Z,47.5510
2023-09-23T08:16:11.886Z,47.5510
2023-09-23T08:17:14.157Z,47.5850
2023-09-23T08:18:16.422Z,47.5440
2023-09-23T08:19:18.673Z,47.6310
2023-09-23T08:20:21.111Z,47.6760
2023-09-23T08:21:23.211Z,47.6720
2023-09-23T08:22:25.405Z,47.7350
2023-09-23T08:23:27.647Z,47.7470
2023-09-23T08:24:29.825Z,47.6820
2023-09-23T08:25:32.063Z,47.5620
2023-09-23T08:26:34.244Z,47.5910
2023-09-23T08:27:36.420Z,47.7590
2023-09-23T08:28:36.586Z,47.6130
2023-09-23T08:29:38.853Z,47.5080
2023-09-23T08:30:41.153Z,47.4380
2023-09-23T08:31:43.474Z,47.3430
2023-09-23T08:32:45.795Z,47.2680
2023-09-23T08:33:48.221Z,47.3650
2023-09-23T08:34:50.405Z,47.3470
2023-09-23T08:35:52.685Z,47.2540
2023-09-23T08:36:54.823Z,47.3290
2023-09-23T08:37:57.107Z,47.3410
2023-09-23T08:38:59.386Z,47.3470
2023-09-23T08:40:01.664Z,47.3780
2023-09-23T08:41:04.013Z,47.4280
2023-09-23T08:42:04.067Z,47.3570
2023-09-23T08:43:06.316Z,47.3010
2023-09-23T08:44:08.589Z,47.3070
2023-09-23T08:45:10.871Z,47.2680
2023-09-23T08:46:13.154Z,47.2820
2023-09-23T08:47:15.259Z,47.1130
2023-09-23T08:48:17.462Z,47.0940
2023-09-23T08:49:19.629Z,47.1690
2023-09-23T08:50:21.968Z,47.1040
2023-09-23T08:51:24.134Z,47.0920
2023-09-23T08:52:26.281Z,47.1730
2023-09-23T08:53:28.561Z,47.2040
2023-09-23T08:54:28.821Z,47.2790
2023-09-23T08:55:30.886Z,47.1850
2023-09-23T08:56:33.160Z,47.1260
2023-09-23T08:57:35.370Z,47.1410
2023-09-23T08:58:37.574Z,47.0300
2023-09-23T08:59:39.770Z,47.0170
2023-09-23T09:00:41.961Z,47.0780
2023-09-23T09:01:44.272Z,47.1350
2023-09-23T09:02:46.451Z,47.0720
2023-09-23T09:03:48.733Z,47.0920
2023-09-23T09:04:50.994Z,47.0660
2023-09-23T09:05:53.279Z,47.0030
2023-09-23T09:06:55.506Z,47.0230
2023-09-23T09:07:57.692Z,47.2660
2023-09-23T09:08:59.910Z,47.1970
2023-09-23T09:10:02.176Z,47.0360
2023-09-23T09:11:04.506Z,47.0010
2023-09-23T09:12:06.664Z,47.0380
2023-09-23T09:13:08.821Z,47.0520
2023-09-23T09:14:11.064Z,47.0320
2023-09-23T09:16:39.313Z,46.9790
2023-09-23T09:17:41.515Z,46.9040
2023-09-23T09:18:43.758Z,46.9490
2023-09-23T09:19:47.389Z,46.9550
2023-09-23T09:20:48.201Z,46.9020
2023-09-23T09:21:50.452Z,46.8640
2023-09-23T09:22:52.839Z,46.8640
2023-09-23T09:23:54.880Z,46.9080
2023-09-23T09:24:57.162Z,46.9270
2023-09-23T09:25:57.331Z,46.8400
2023-09-23T09:26:59.573Z,46.8210
2023-09-23T09:28:01.884Z,46.7140
2023-09-23T09:29:04.138Z,46.7270
2023-09-23T09:30:14.114Z,46.7870
2023-09-23T09:31:08.600Z,46.8740
2023-09-23T09:32:10.886Z,47.0700
2023-09-23T09:33:13.110Z,46.8540
2023-09-23T09:34:15.341Z,46.6980
2023-09-23T09:35:17.577Z,46.5630
2023-09-23T09:36:18.378Z,46.5970
2023-09-23T09:37:19.809Z,46.6960
2023-09-23T09:38:22.045Z,46.6340
2023-09-23T09:39:23.987Z,46.6400
2023-09-23T09:40:26.000Z,46.6580
2023-09-23T09:41:28.131Z,46.6900
2023-09-23T09:42:30.149Z,46.5630
2023-09-23T09:43:32.303Z,46.6170
2023-09-23T09:44:34.436Z,46.6500
2023-09-23T09:45:36.608Z,46.7430
2023-09-23T09:46:38.836Z,46.8050
2023-09-23T09:47:41.135Z,46.8450
2023-09-23T09:48:43.271Z,46.9570
2023-09-23T09:49:45.463Z,46.8330
2023-09-23T09:50:47.677Z,46.8270
2023-09-23T09:51:49.937Z,47.1690
2023-09-23T09:52:52.306Z,47.0010
2023-09-23T09:53:54.432Z,46.8130
2023-09-23T09:54:56.549Z,46.8580
2023-09-23T09:55:58.772Z,46.8940
2023-09-23T09:57:00.998Z,46.7990
2023-09-23T09:58:03.234Z,46.6740
2023-09-23T09:59:05.558Z,46.8480
2023-09-23T10:00:07.834Z,46.7670
2023-09-23T10:01:10.136Z,46.7550
2023-09-23T10:02:12.411Z,46.8740
2023-09-23T10:03:12.713Z,47.4470
2023-09-23T10:04:14.729Z,47.3780
2023-09-23T10:05:17.045Z,47.1910
2023-09-23T10:06:19.225Z,47.1530
2023-09-23T10:07:21.422Z,47.0480
2023-09-23T10:08:23.701Z,46.8700
2023-09-23T10:09:25.949Z,46.6960
2023-09-23T10:10:28.172Z,46.7370
2023-09-23T10:11:30.517Z,46.6500
2023-09-23T10:12:32.705Z,46.6400
2023-09-23T10:13:32.851Z,46.6640
2023-09-23T10:14:35.290Z,46.5570
2023-09-23T10:15:37.321Z,46.6120
2023-09-23T10:16:39.636Z,46.5570
2023-09-23T10:17:41.946Z,46.5290
2023-09-23T10:18:44.274Z,46.4430
2023-09-23T10:19:46.343Z,46.3290
2023-09-23T10:20:48.520Z,46.4740
2023-09-23T10:21:50.748Z,46.7470
2023-09-23T10:22:53.031Z,46.6050
2023-09-23T10:23:52.983Z,46.5990
2023-09-23T10:24:55.281Z,46.5690
2023-09-23T10:25:57.396Z,46.5970
2023-09-23T10:26:59.587Z,46.4600
2023-09-23T10:28:01.797Z,46.3470
2023-09-23T10:29:04.041Z,46.4420
2023-09-23T10:30:06.258Z,46.3790
2023-09-23T10:31:08.571Z,46.4320
2023-09-23T10:32:10.719Z,46.3820
2023-09-23T10:33:12.996Z,46.2390
2023-09-23T10:34:15.196Z,46.0430
2023-09-23T10:35:17.533Z,46.3110
2023-09-23T10:36:17.555Z,46.3250
2023-09-23T10:37:19.800Z,46.2790
2023-09-23T10:38:22.109Z,46.2270
2023-09-23T10:39:24.343Z,46.0530
2023-09-23T10:40:26.602Z,45.9610
2023-09-23T10:41:28.777Z,45.8610
2023-09-23T10:42:30.938Z,45.8490
2023-09-23T10:43:33.190Z,45.8060
2023-09-23T10:44:35.512Z,45.8120
2023-09-23T10:45:37.708Z,45.7380
2023-09-23T10:46:40.038Z,45.8710
2023-09-23T10:47:40.068Z,45.8890
2023-09-23T10:48:42.247Z,45.8240
2023-09-23T10:49:44.515Z,45.8490
2023-09-23T10:50:46.829Z,45.8670
2023-09-23T10:51:49.102Z,45.7560
2023-09-23T10:52:51.365Z,45.7380
2023-09-23T10:53:53.638Z,45.7260
2023-09-23T10:54:55.905Z,45.7500
2023-09-23T10:55:58.238Z,45.7460
2023-09-23T10:57:00.443Z,45.7580
2023-09-23T10:58:02.767Z,45.6980
2023-09-23T10:59:05.049Z,45.5920
2023-09-23T11:00:07.294Z,45.5430
2023-09-23T11:01:09.620Z,45.5800
2023-09-23T11:02:11.921Z,45.7340
2023-09-23T11:03:12.187Z,45.7280
2023-09-23T11:04:14.313Z,45.5360
2023-09-23T11:05:16.577Z,45.4130
2023-09-23T11:06:18.815Z,45.3570
2023-09-23T11:07:21.045Z,45.3890
2023-09-23T11:08:23.402Z,45.4690
2023-09-23T11:09:26.529Z,45.4690
2023-09-23T11:10:27.927Z,45.4490
2023-09-23T11:11:28.120Z,45.4930
2023-09-23T11:12:30.243Z,45.5610
2023-09-23T11:13:32.508Z,45.5270
2023-09-23T11:14:34.773Z,45.4150
2023-09-23T11:15:37.015Z,45.4470
2023-09-23T11:16:39.300Z,45.4070
2023-09-23T11:17:41.623Z,45.4070
2023-09-23T11:18:43.868Z,45.3330
2023-09-23T11:19:44.678Z,45.3670
2023-09-23T11:20:46.353Z,45.2990
2023-09-23T11:21:48.616Z,45.3470
2023-09-23T11:22:50.873Z,45.3870
2023-09-23T11:23:53.139Z,45.3170
2023-09-23T11:24:55.436Z,45.2650
2023-09-23T11:25:57.776Z,44.9750
2023-09-23T11:26:58.069Z,44.8220
2023-09-23T11:28:00.267Z,44.6010
2023-09-23T11:29:02.469Z,44.5650
2023-09-23T11:30:04.750Z,44.4980
2023-09-23T11:31:07.042Z,44.6630
2023-09-23T11:32:07.351Z,44.9950
2023-09-23T11:33:09.590Z,44.8220
2023-09-23T11:34:11.831Z,45.4770
2023-09-23T11:35:14.124Z,45.4990
2023-09-23T11:36:16.392Z,45.8950
2023-09-23T11:37:18.676Z,46.8220
2023-09-23T11:38:20.990Z,46.3370
2023-09-23T11:39:23.249Z,46.9060
2023-09-23T11:40:23.392Z,47.1800
2023-09-23T11:41:25.694Z,47.1020
2023-09-23T11:42:28.003Z,46.8850
2023-09-23T11:43:30.209Z,46.2040
2023-09-23T11:44:33.263Z,46.0990
2023-09-23T11:45:34.871Z,45.6550
2023-09-23T11:46:34.931Z,45.4080
2023-09-23T11:47:37.291Z,45.2960
2023-09-23T11:48:39.449Z,45.0060
2023-09-23T11:49:41.729Z,45.0560
2023-09-23T11:50:44.047Z,45.0680
2023-09-23T11:51:46.320Z,44.9120
2023-09-23T11:52:48.668Z,44.8240
2023-09-23T11:53:50.845Z,45.0620
2023-09-23T11:54:50.986Z,45.4820
2023-09-23T11:55:53.174Z,45.0040
2023-09-23T11:56:55.427Z,44.8000
2023-09-23T11:57:57.780Z,44.6410
2023-09-23T11:59:08.275Z,44.5970
2023-09-23T12:00:02.285Z,44.4970
2023-09-23T12:01:04.575Z,44.4090
2023-09-23T12:02:06.926Z,44.3790
2023-09-23T12:03:07.106Z,44.3300
2023-09-23T12:04:09.427Z,44.2200
2023-09-23T12:05:11.847Z,44.2500
2023-09-23T12:06:14.035Z,44.6190
2023-09-23T12:07:16.277Z,44.6870
2023-09-23T12:08:16.496Z,44.8160
2023-09-23T12:09:18.722Z,44.6800
2023-09-23T12:10:21.012Z,44.7170
2023-09-23T12:11:23.381Z,44.7200
2023-09-23T12:12:25.592Z,44.6960
2023-09-23T12:13:27.941Z,44.7560
2023-09-23T12:14:30.245Z,44.6520
2023-09-23T12:15:30.309Z,44.6820
2023-09-23T12:16:32.613Z,44.5910
2023-09-23T12:17:35.002Z,44.4610
2023-09-23T12:18:37.189Z,44.4430
2023-09-23T12:19:39.467Z,44.4490
2023-09-23T12:20:41.801Z,44.6080
2023-09-23T12:21:44.023Z,44.4110
2023-09-23T12:22:45.187Z,44.5050
2023-09-23T12:23:47.521Z,44.9550
2023-09-23T12:24:49.796Z,44.8850
2023-09-23T12:25:49.942Z,44.9910
2023-09-23T12:26:52.253Z,45.4070
2023-09-23T12:27:54.552Z,45.9910
2023-09-23T12:28:57.011Z,46.3070
2023-09-23T12:29:59.160Z,45.4430
2023-09-23T12:31:01.397Z,45.1230
2023-09-23T12:32:03.672Z,45.0190
2023-09-23T12:33:05.949Z,44.8610
2023-09-23T12:34:08.282Z,44.7070
2023-09-23T12:35:10.575Z,44.6630
2023-09-23T12:36:12.777Z,44.6450
2023-09-23T12:37:15.033Z,45.0190